Time;durP1;ratioP1;P1;durP2;ratioP2;P2;SDS_P1;SDS_P2;PMS_P1;PMS_P2;Temp;Humidity;BMP_temperature;BMP_pressure;BME280_temperature;BME280_humidity;BME280_pressure;Samples;Min_cycle;Max_cycle;Signal;HPM_P1;HPM_P2
2022/04/14 00:02:25;;;;;;;28.10;13.63;;;;;;;;;;5022754;28;20049;-58
2022/04/14 00:04:51;;;;;;;16.50;8.27;;;;;;;;;;5028740;28;20119;-61
2022/04/14 00:07:19;;;;;;;21.33;10.65;;;;;;;;;;5017345;28;20148;-59
2022/04/14 00:09:45;;;;;;;23.40;10.30;;;;;;;;;;5007857;28;20050;-55
2022/04/14 00:12:12;;;;;;;25.45;12.35;;;;;;;;;;5004028;28;20066;-59
2022/04/14 00:14:39;;;;;;;20.25;10.50;;;;;;;;;;5009834;28;20065;-60
2022/04/14 00:17:05;;;;;;;26.55;13.48;;;;;;;;;;5010102;28;20073;-61
2022/04/14 00:19:33;;;;;;;21.83;11.55;;;;;;;;;;5019861;28;20121;-58
2022/04/14 00:22:00;;;;;;;22.13;10.95;;;;;;;;;;5025899;28;20049;-58
2022/04/14 00:24:26;;;;;;;26.25;12.88;;;;;;;;;;5019830;28;20049;-61
2022/04/14 00:26:53;;;;;;;28.95;14.15;;;;;;;;;;5026772;28;20056;-59
2022/04/14 00:29:20;;;;;;;32.75;14.57;;;;;;;;;;5021117;28;20056;-58
2022/04/14 00:31:46;;;;;;;23.98;11.98;;;;;;;;;;5027684;28;20122;-58
2022/04/14 00:34:13;;;;;;;17.65;8.73;;;;;;;;;;5023115;28;20060;-62
2022/04/14 00:36:41;;;;;;;27.67;13.63;;;;;;;;;;5029904;28;20119;-60
2022/04/14 00:39:09;;;;;;;26.83;12.30;;;;;;;;;;5023727;28;20109;-62
2022/04/14 00:41:35;;;;;;;28.03;13.40;;;;;;;;;;5028841;28;20083;-59
2022/04/14 00:44:02;;;;;;;24.67;10.82;;;;;;;;;;5012677;28;20053;-62
2022/04/14 00:46:32;;;;;;;32.40;15.07;;;;;;;;;;5029947;28;20045;-61
2022/04/14 00:48:59;;;;;;;29.48;14.68;;;;;;;;;;5020555;28;20049;-59
2022/04/14 00:51:26;;;;;;;27.55;13.13;;;;;;;;;;5026582;28;20095;-63
2022/04/14 00:53:54;;;;;;;31.25;14.75;;;;;;;;;;5006546;28;20058;-63
2022/04/14 00:56:21;;;;;;;21.27;10.57;;;;;;;;;;5029785;28;20123;-61
2022/04/14 00:58:48;;;;;;;16.70;8.88;;;;;;;;;;5028869;28;20044;-58
2022/04/14 01:01:15;;;;;;;16.20;8.05;;;;;;;;;;5027064;28;20099;-63
2022/04/14 01:03:45;;;;;;;20.10;9.52;;;;;;;;;;5029840;28;20072;-60
2022/04/14 01:06:14;;;;;;;26.15;12.57;;;;;;;;;;5007201;28;20148;-59
2022/04/14 01:08:41;;;;;;;17.80;8.50;;;;;;;;;;5004265;28;20056;-61
2022/04/14 01:11:10;;;;;;;21.23;10.00;;;;;;;;;;5020809;28;20068;-60
2022/04/14 01:13:36;;;;;;;19.65;11.00;;;;;;;;;;5013089;28;20058;-58
2022/04/14 01:16:03;;;;;;;23.75;11.82;;;;;;;;;;5007372;28;20057;-60
2022/04/14 01:18:30;;;;;;;21.98;10.57;;;;;;;;;;5013623;28;20049;-58
2022/04/14 01:20:56;;;;;;;20.90;11.07;;;;;;;;;;5007971;28;20050;-60
2022/04/14 01:23:29;;;;;;;20.73;9.88;;;;;;;;;;5013500;28;20128;-57
2022/04/14 01:25:57;;;;;;;16.08;7.95;;;;;;;;;;5006756;28;20081;-59
2022/04/14 01:28:24;;;;;;;21.38;9.48;;;;;;;;;;5012629;28;20068;-57
2022/04/14 01:30:50;;;;;;;21.15;10.63;;;;;;;;;;5001237;28;20053;-57
2022/04/14 01:33:19;;;;;;;21.77;10.38;;;;;;;;;;4993012;28;20064;-55
2022/04/14 01:35:46;;;;;;;26.02;12.32;;;;;;;;;;4991401;28;20108;-53
2022/04/14 01:38:13;;;;;;;20.13;11.15;;;;;;;;;;5002706;28;20052;-53
2022/04/14 01:40:40;;;;;;;23.27;11.30;;;;;;;;;;5007029;28;20064;-58
2022/04/14 01:43:08;;;;;;;22.65;11.10;;;;;;;;;;5012920;28;20754;-56
2022/04/14 01:45:35;;;;;;;21.85;10.40;;;;;;;;;;5014880;28;20058;-61
2022/04/14 01:48:02;;;;;;;17.70;9.30;;;;;;;;;;5010569;28;20053;-51
2022/04/14 01:50:28;;;;;;;17.85;8.85;;;;;;;;;;5013780;28;20415;-60
2022/04/14 01:52:54;;;;;;;18.60;10.88;;;;;;;;;;5016985;28;20076;-56
2022/04/14 01:55:23;;;;;;;;;;;;;;;;;;5049125;28;20052;-60
2022/04/14 01:57:50;;;;;;;15.45;8.15;;;;;;;;;;5044309;28;19925;-57
2022/04/14 02:00:18;;;;;;;17.08;8.38;;;;;;;;;;5011318;28;20049;-58
2022/04/14 02:02:44;;;;;;;21.42;10.60;;;;;;;;;;5016475;28;20049;-58
2022/04/14 02:05:12;;;;;;;18.17;9.80;;;;;;;;;;5029849;28;20100;-58
2022/04/14 02:07:39;;;;;;;14.40;7.95;;;;;;;;;;5033131;28;20076;-57
2022/04/14 02:10:08;;;;;;;16.85;8.27;;;;;;;;;;5048497;28;20057;-58
2022/04/14 02:12:37;;;;;;;17.92;8.70;;;;;;;;;;5035413;28;20185;-61
2022/04/14 02:15:04;;;;;;;21.92;11.55;;;;;;;;;;5030433;28;20061;-58
2022/04/14 02:17:32;;;;;;;15.75;8.18;;;;;;;;;;5027500;28;20080;-60
2022/04/14 02:19:59;;;;;;;19.83;8.93;;;;;;;;;;5028784;28;20053;-59
2022/04/14 02:22:25;;;;;;;14.80;7.72;;;;;;;;;;5021979;28;20061;-57
2022/04/14 02:24:52;;;;;;;26.25;11.77;;;;;;;;;;5027733;28;20065;-58
2022/04/14 02:27:18;;;;;;;22.05;10.77;;;;;;;;;;5024547;28;20088;-59
2022/04/14 02:29:45;;;;;;;22.25;10.27;;;;;;;;;;5025972;28;20140;-57
2022/04/14 02:32:12;;;;;;;17.88;8.88;;;;;;;;;;5027600;28;20058;-54
2022/04/14 02:34:40;;;;;;;14.57;7.30;;;;;;;;;;5039410;28;20088;-60
2022/04/14 02:37:07;;;;;;;14.82;7.18;;;;;;;;;;5047772;28;20045;-63
2022/04/14 02:39:33;;;;;;;18.25;9.55;;;;;;;;;;5041035;28;20108;-61
2022/04/14 02:42:00;;;;;;;17.45;8.93;;;;;;;;;;5046385;28;20131;-64
2022/04/14 02:44:26;;;;;;;17.02;8.63;;;;;;;;;;5035384;28;20083;-56
2022/04/14 02:46:53;;;;;;;24.30;12.10;;;;;;;;;;5048095;28;20049;-58
2022/04/14 02:49:21;;;;;;;19.90;10.57;;;;;;;;;;5032710;28;20085;-58
2022/04/14 02:51:49;;;;;;;21.00;10.45;;;;;;;;;;5033567;28;20053;-58
2022/04/14 02:54:16;;;;;;;17.20;8.00;;;;;;;;;;5041110;28;20103;-60
2022/04/14 02:56:42;;;;;;;19.40;9.75;;;;;;;;;;5046541;28;20065;-56
2022/04/14 02:59:09;;;;;;;15.25;7.45;;;;;;;;;;5040746;28;20060;-56
2022/04/14 03:01:35;;;;;;;19.23;9.23;;;;;;;;;;5048150;28;20121;-56
2022/04/14 03:04:02;;;;;;;21.23;10.50;;;;;;;;;;5038636;28;20049;-58
2022/04/14 03:06:29;;;;;;;19.05;10.88;;;;;;;;;;5027221;28;20067;-57
2022/04/14 03:08:57;;;;;;;15.25;7.82;;;;;;;;;;5023202;28;20061;-55
2022/04/14 03:11:24;;;;;;;16.92;9.05;;;;;;;;;;5030716;28;20053;-58
2022/04/14 03:13:50;;;;;;;17.33;9.35;;;;;;;;;;5031390;28;20049;-58
2022/04/14 03:16:20;;;;;;;16.05;7.97;;;;;;;;;;5021252;28;20061;-59
2022/04/14 03:18:46;;;;;;;18.30;9.50;;;;;;;;;;5029232;28;20045;-57
2022/04/14 03:21:13;;;;;;;20.48;11.43;;;;;;;;;;5025138;28;20045;-62
2022/04/14 03:23:39;;;;;;;16.88;8.75;;;;;;;;;;5027531;28;20184;-56
2022/04/14 03:26:09;;;;;;;13.98;7.80;;;;;;;;;;5033972;28;20049;-57
2022/04/14 03:28:36;;;;;;;16.30;7.85;;;;;;;;;;5038991;28;20095;-56
2022/04/14 03:31:03;;;;;;;15.20;8.40;;;;;;;;;;5030868;28;20141;-55
2022/04/14 03:33:30;;;;;;;20.35;10.98;;;;;;;;;;5027463;28;20053;-60
2022/04/14 03:35:57;;;;;;;18.35;9.65;;;;;;;;;;5022157;28;20057;-58
2022/04/14 03:38:24;;;;;;;19.80;9.55;;;;;;;;;;5027546;28;20057;-61
2022/04/14 03:40:51;;;;;;;14.07;7.35;;;;;;;;;;5027802;28;20057;-59
2022/04/14 03:43:19;;;;;;;17.25;9.38;;;;;;;;;;5046651;28;20143;-58
2022/04/14 03:45:46;;;;;;;17.92;8.55;;;;;;;;;;5039598;28;20048;-53
2022/04/14 03:48:12;;;;;;;12.90;7.05;;;;;;;;;;5046891;28;20061;-60
2022/04/14 03:50:39;;;;;;;12.63;6.38;;;;;;;;;;5040886;28;20064;-55
2022/04/14 03:53:06;;;;;;;13.48;6.65;;;;;;;;;;5046044;28;20068;-57
2022/04/14 03:55:33;;;;;;;10.60;5.90;;;;;;;;;;5046437;28;20053;-56
2022/04/14 03:57:59;;;;;;;16.52;8.10;;;;;;;;;;5040766;28;20057;-58
2022/04/14 04:00:27;;;;;;;14.80;8.18;;;;;;;;;;5046505;28;20061;-59
2022/04/14 04:02:54;;;;;;;13.30;6.88;;;;;;;;;;5040214;28;20056;-56
2022/04/14 04:05:22;;;;;;;17.20;9.52;;;;;;;;;;5043715;28;20103;-58
2022/04/14 04:07:48;;;;;;;16.20;7.57;;;;;;;;;;5043062;28;20059;-55
2022/04/14 04:10:16;;;;;;;13.68;6.97;;;;;;;;;;5049882;28;20303;-60
2022/04/14 04:12:42;;;;;;;11.73;6.77;;;;;;;;;;5044374;28;20167;-59
2022/04/14 04:15:11;;;;;;;11.85;6.68;;;;;;;;;;5044247;28;20131;-60
2022/04/14 04:17:39;;;;;;;17.05;7.88;;;;;;;;;;5036723;28;20066;-60
2022/04/14 04:20:08;;;;;;;18.23;9.45;;;;;;;;;;5030919;28;20057;-61
2022/04/14 04:22:35;;;;;;;13.93;7.32;;;;;;;;;;5026108;28;20159;-58
2022/04/14 04:25:03;;;;;;;20.67;10.70;;;;;;;;;;5030067;28;20115;-55
2022/04/14 04:27:30;;;;;;;13.52;7.65;;;;;;;;;;5029439;28;20041;-55
2022/04/14 04:29:56;;;;;;;16.23;7.35;;;;;;;;;;5050983;28;20135;-57
2022/04/14 04:32:23;;;;;;;15.63;8.07;;;;;;;;;;5045490;28;20204;-55
2022/04/14 04:34:51;;;;;;;19.85;10.13;;;;;;;;;;5051276;28;20052;-54
2022/04/14 04:37:19;;;;;;;17.88;8.88;;;;;;;;;;5047162;28;20052;-56
2022/04/14 04:39:46;;;;;;;18.35;10.20;;;;;;;;;;5029670;28;20116;-54
2022/04/14 04:42:13;;;;;;;15.55;8.68;;;;;;;;;;5034048;28;20044;-52
2022/04/14 04:44:39;;;;;;;15.43;7.85;;;;;;;;;;5027677;28;20049;-56
2022/04/14 04:47:06;;;;;;;19.42;9.63;;;;;;;;;;5030372;28;20060;-59
2022/04/14 04:49:33;;;;;;;15.77;8.10;;;;;;;;;;5025576;28;20066;-58
2022/04/14 04:52:01;;;;;;;17.20;8.77;;;;;;;;;;5039259;28;20060;-60
2022/04/14 04:54:27;;;;;;;16.80;8.80;;;;;;;;;;5045828;28;20053;-58
2022/04/14 04:56:54;;;;;;;16.13;9.07;;;;;;;;;;5051169;28;20140;-58
2022/04/14 04:59:21;;;;;;;16.90;9.07;;;;;;;;;;5041704;28;20073;-56
2022/04/14 05:01:47;;;;;;;13.60;7.22;;;;;;;;;;5031431;28;20050;-56
2022/04/14 05:04:14;;;;;;;15.80;7.78;;;;;;;;;;5025056;28;20057;-56
2022/04/14 05:06:41;;;;;;;16.58;8.35;;;;;;;;;;5025487;28;20056;-57
2022/04/14 05:09:11;;;;;;;13.63;7.32;;;;;;;;;;5031575;28;20116;-55
2022/04/14 05:11:37;;;;;;;14.90;7.70;;;;;;;;;;5038788;28;20046;-56
2022/04/14 05:14:04;;;;;;;13.52;7.28;;;;;;;;;;5040203;28;20144;-58
2022/04/14 05:16:31;;;;;;;12.95;6.82;;;;;;;;;;5029847;28;20060;-57
2022/04/14 05:18:57;;;;;;;15.93;8.27;;;;;;;;;;5033328;28;20052;-58
2022/04/14 05:21:24;;;;;;;19.83;9.77;;;;;;;;;;5028999;28;20084;-56
2022/04/14 05:23:51;;;;;;;19.35;9.65;;;;;;;;;;5039842;28;20068;-58
2022/04/14 05:26:20;;;;;;;13.10;7.07;;;;;;;;;;5032782;28;20096;-54
2022/04/14 05:28:46;;;;;;;13.88;6.80;;;;;;;;;;5042058;28;20053;-56
2022/04/14 05:31:13;;;;;;;10.90;6.20;;;;;;;;;;5043232;28;20108;-61
2022/04/14 05:33:39;;;;;;;16.50;7.70;;;;;;;;;;5030893;28;20049;-53
2022/04/14 05:36:06;;;;;;;17.83;9.32;;;;;;;;;;5042000;28;20049;-57
2022/04/14 05:38:33;;;;;;;12.90;7.32;;;;;;;;;;5027932;28;20054;-57
2022/04/14 05:40:59;;;;;;;16.90;7.35;;;;;;;;;;5037841;28;20058;-54
2022/04/14 05:43:28;;;;;;;14.93;7.30;;;;;;;;;;5028902;28;20084;-52
2022/04/14 05:45:56;;;;;;;12.18;6.82;;;;;;;;;;5047879;28;20060;-59
2022/04/14 05:48:23;;;;;;;11.25;6.40;;;;;;;;;;5051656;28;20045;-58
2022/04/14 05:50:52;;;;;;;13.60;6.82;;;;;;;;;;5042331;28;20083;-53
2022/04/14 05:53:25;;;;;;;12.10;6.90;;;;;;;;;;5052442;28;20116;-55
2022/04/14 05:55:51;;;;;;;14.35;6.35;;;;;;;;;;5039090;28;20078;-56
2022/04/14 05:58:18;;;;;;;10.98;6.00;;;;;;;;;;5035371;28;20056;-56
2022/04/14 06:00:46;;;;;;;16.83;8.10;;;;;;;;;;5027363;28;20057;-57
2022/04/14 06:03:13;;;;;;;11.95;6.70;;;;;;;;;;5046901;28;20152;-56
2022/04/14 06:05:41;;;;;;;12.30;6.30;;;;;;;;;;5051896;28;20066;-54
2022/04/14 06:08:07;;;;;;;14.40;7.75;;;;;;;;;;5039728;28;20056;-52
2022/04/14 06:10:35;;;;;;;11.98;6.55;;;;;;;;;;5051336;28;20052;-56
2022/04/14 06:13:03;;;;;;;13.73;7.45;;;;;;;;;;5040386;28;20117;-55
2022/04/14 06:15:31;;;;;;;13.40;7.55;;;;;;;;;;5042633;28;20053;-55
2022/04/14 06:17:59;;;;;;;16.40;8.75;;;;;;;;;;5028916;28;20057;-52
2022/04/14 06:20:26;;;;;;;16.05;8.65;;;;;;;;;;5045113;28;20066;-55
2022/04/14 06:22:52;;;;;;;17.10;8.52;;;;;;;;;;5051833;28;20056;-54
2022/04/14 06:25:22;;;;;;;14.20;6.90;;;;;;;;;;5033443;28;20110;-51
2022/04/14 06:27:49;;;;;;;13.63;6.68;;;;;;;;;;5030868;28;20052;-55
2022/04/14 06:30:17;;;;;;;14.50;7.88;;;;;;;;;;5035262;28;20076;-57
2022/04/14 06:32:55;;;;;;;12.98;7.55;;;;;;;;;;5051989;28;20063;-53
2022/04/14 06:35:23;;;;;;;21.45;8.98;;;;;;;;;;5036983;28;20101;-57
2022/04/14 06:37:49;;;;;;;16.27;8.65;;;;;;;;;;5051432;28;20056;-59
2022/04/14 06:40:18;;;;;;;26.67;13.05;;;;;;;;;;5045041;28;20105;-56
2022/04/14 06:42:45;;;;;;;39.53;16.38;;;;;;;;;;5043697;28;20148;-54
2022/04/14 06:45:11;;;;;;;25.13;11.45;;;;;;;;;;5031576;28;20052;-56
2022/04/14 06:47:38;;;;;;;14.50;7.18;;;;;;;;;;5049117;28;20083;-57
2022/04/14 06:50:05;;;;;;;15.45;8.50;;;;;;;;;;5036033;28;20056;-56
2022/04/14 06:52:33;;;;;;;20.85;10.20;;;;;;;;;;5050542;28;20060;-55
2022/04/14 06:54:59;;;;;;;18.75;9.57;;;;;;;;;;5046151;28;20064;-61
2022/04/14 06:57:26;;;;;;;16.58;9.15;;;;;;;;;;5029968;28;20052;-58
2022/04/14 06:59:53;;;;;;;18.02;9.15;;;;;;;;;;5031120;28;20052;-56
2022/04/14 07:02:22;;;;;;;19.02;9.63;;;;;;;;;;5042314;28;20101;-57
2022/04/14 07:04:50;;;;;;;18.02;9.07;;;;;;;;;;5050912;28;20059;-53
2022/04/14 07:07:17;;;;;;;15.90;8.70;;;;;;;;;;5030181;28;20048;-58
2022/04/14 07:09:44;;;;;;;18.48;10.32;;;;;;;;;;5030909;28;20052;-54
2022/04/14 07:12:11;;;;;;;19.52;10.43;;;;;;;;;;5029408;28;20052;-53
2022/04/14 07:14:39;;;;;;;20.42;10.68;;;;;;;;;;5050908;28;20052;-56
2022/04/14 07:17:07;;;;;;;20.15;10.10;;;;;;;;;;5045160;28;20071;-57
2022/04/14 07:19:33;;;;;;;25.48;11.57;;;;;;;;;;5051016;28;20052;-60
2022/04/14 07:22:00;;;;;;;25.70;10.90;;;;;;;;;;5045323;28;20169;-55
2022/04/14 07:24:26;;;;;;;21.38;11.20;;;;;;;;;;5050838;28;20052;-56
2022/04/14 07:26:54;;;;;;;19.60;10.48;;;;;;;;;;5039394;28;20107;-59
2022/04/14 07:29:21;;;;;;;23.60;10.18;;;;;;;;;;5030391;28;20052;-61
2022/04/14 07:31:49;;;;;;;15.32;8.70;;;;;;;;;;5028992;28;20135;-59
2022/04/14 07:34:16;;;;;;;18.83;9.60;;;;;;;;;;5050433;28;20084;-61
2022/04/14 07:36:42;;;;;;;24.35;9.75;;;;;;;;;;5043960;28;20106;-58
2022/04/14 07:39:09;;;;;;;21.27;10.85;;;;;;;;;;5030995;28;20049;-58
2022/04/14 07:41:35;;;;;;;20.27;10.52;;;;;;;;;;5030159;28;20052;-60
2022/04/14 07:44:04;;;;;;;20.27;10.35;;;;;;;;;;5042793;28;20106;-61
2022/04/14 07:46:32;;;;;;;26.65;12.13;;;;;;;;;;5050456;28;20082;-55
2022/04/14 07:48:58;;;;;;;34.95;14.07;;;;;;;;;;5029009;28;20144;-57
2022/04/14 07:51:25;;;;;;;24.15;11.80;;;;;;;;;;5033922;28;20053;-55
2022/04/14 07:53:52;;;;;;;25.15;13.15;;;;;;;;;;5045182;28;20045;-59
2022/04/14 07:56:20;;;;;;;21.98;11.13;;;;;;;;;;5052247;28;20056;-57
2022/04/14 07:58:48;;;;;;;26.98;12.23;;;;;;;;;;5033622;28;20049;-60
2022/04/14 08:01:18;;;;;;;21.08;10.57;;;;;;;;;;5020603;28;20052;-58
2022/04/14 08:03:46;;;;;;;18.80;10.15;;;;;;;;;;5025595;28;20061;-57
2022/04/14 08:06:13;;;;;;;18.57;9.90;;;;;;;;;;5030559;28;20056;-58
2022/04/14 08:08:39;;;;;;;18.25;9.05;;;;;;;;;;5028247;28;20303;-56
2022/04/14 08:11:08;;;;;;;20.38;9.70;;;;;;;;;;5030731;28;20083;-54
2022/04/14 08:13:37;;;;;;;19.27;9.13;;;;;;;;;;5028007;28;20110;-58
2022/04/14 08:16:06;;;;;;;19.38;9.02;;;;;;;;;;5050214;28;20048;-58
2022/04/14 08:18:35;;;;;;;19.30;9.10;;;;;;;;;;5042067;28;20105;-58
2022/04/14 08:21:02;;;;;;;21.98;9.48;;;;;;;;;;5030222;28;20106;-56
2022/04/14 08:23:29;;;;;;;24.00;10.40;;;;;;;;;;5025636;28;20045;-56
2022/04/14 08:25:55;;;;;;;19.30;9.63;;;;;;;;;;5030021;28;20037;-55
2022/04/14 08:28:22;;;;;;;18.10;8.45;;;;;;;;;;5029884;28;20276;-55
2022/04/14 08:30:48;;;;;;;20.33;8.80;;;;;;;;;;5042429;28;20067;-60
2022/04/14 08:33:16;;;;;;;18.48;8.23;;;;;;;;;;5049790;28;20057;-57
2022/04/14 08:35:44;;;;;;;23.13;9.05;;;;;;;;;;5028021;28;20068;-58
2022/04/14 08:38:11;;;;;;;16.20;7.95;;;;;;;;;;5050368;28;20079;-57
2022/04/14 08:40:38;;;;;;;16.48;7.50;;;;;;;;;;5029386;28;20057;-58
2022/04/14 08:43:06;;;;;;;19.67;8.30;;;;;;;;;;5037376;28;20061;-56
2022/04/14 08:45:34;;;;;;;16.40;7.10;;;;;;;;;;5025059;28;20048;-58
2022/04/14 08:48:01;;;;;;;15.82;7.65;;;;;;;;;;5029767;28;20144;-54
2022/04/14 08:50:28;;;;;;;18.90;8.13;;;;;;;;;;5024482;28;20049;-56
2022/04/14 08:52:56;;;;;;;18.00;7.60;;;;;;;;;;5029792;28;20041;-57
2022/04/14 08:55:23;;;;;;;19.55;8.43;;;;;;;;;;5027805;28;20076;-58
2022/04/14 08:57:50;;;;;;;20.58;8.02;;;;;;;;;;5033844;28;20114;-58
2022/04/14 09:00:17;;;;;;;17.20;7.53;;;;;;;;;;5028596;28;20140;-57
2022/04/14 09:02:45;;;;;;;20.50;8.05;;;;;;;;;;5033243;28;20052;-55
2022/04/14 09:05:31;;;;;;;14.50;7.93;;;;;;;;;;5029317;28;20045;-59
2022/04/14 09:08:08;;;;;;;18.52;8.30;;;;;;;;;;5033543;28;20124;-57
2022/04/14 09:10:36;;;;;;;18.92;8.25;;;;;;;;;;5033658;28;20044;-56
2022/04/14 09:13:02;;;;;;;19.50;8.43;;;;;;;;;;5033114;28;20053;-56
2022/04/14 09:15:31;;;;;;;18.08;8.13;;;;;;;;;;5033547;28;20060;-62
2022/04/14 09:17:57;;;;;;;18.00;8.40;;;;;;;;;;5033002;28;20057;-57
2022/04/14 09:20:31;;;;;;;23.02;8.20;;;;;;;;;;5033215;28;20053;-54
2022/04/14 09:23:15;;;;;;;17.02;7.97;;;;;;;;;;5033355;28;20076;-58
2022/04/14 09:25:42;;;;;;;18.15;7.68;;;;;;;;;;5033094;28;20053;-56
2022/04/14 09:28:10;;;;;;;19.08;7.55;;;;;;;;;;5032606;28;20051;-57
2022/04/14 09:30:36;;;;;;;20.10;8.23;;;;;;;;;;5033319;28;20049;-58
2022/04/14 09:33:03;;;;;;;24.20;10.07;;;;;;;;;;5033023;28;20107;-58
2022/04/14 09:35:31;;;;;;;25.50;10.85;;;;;;;;;;5033106;28;20053;-58
2022/04/14 09:38:01;;;;;;;19.50;8.60;;;;;;;;;;5032179;28;20052;-54
2022/04/14 09:40:31;;;;;;;15.65;7.75;;;;;;;;;;5032662;28;20060;-57
2022/04/14 09:42:57;;;;;;;22.77;8.45;;;;;;;;;;5031537;28;20049;-55
2022/04/14 09:45:27;;;;;;;19.90;8.15;;;;;;;;;;5051625;28;20060;-55
2022/04/14 09:47:53;;;;;;;22.83;7.90;;;;;;;;;;5033507;28;20060;-58
2022/04/14 09:50:25;;;;;;;19.38;8.40;;;;;;;;;;5032861;28;20258;-61
2022/04/14 09:52:58;;;;;;;17.33;7.85;;;;;;;;;;5032618;28;20092;-58
2022/04/14 09:55:25;;;;;;;15.88;7.20;;;;;;;;;;5033523;28;20057;-59
2022/04/14 09:58:06;;;;;;;18.45;6.97;;;;;;;;;;5033445;28;20057;-60
2022/04/14 10:00:39;;;;;;;15.23;6.38;;;;;;;;;;5032886;28;20060;-59
2022/04/14 10:03:09;;;;;;;17.35;7.57;;;;;;;;;;5023372;28;20049;-63
2022/04/14 10:05:36;;;;;;;17.35;7.40;;;;;;;;;;5032397;28;20057;-56
2022/04/14 10:08:07;;;;;;;17.08;7.30;;;;;;;;;;5032439;28;20079;-59
2022/04/14 10:10:33;;;;;;;17.20;6.50;;;;;;;;;;5032813;28;20122;-62
2022/04/14 10:13:05;;;;;;;17.23;6.63;;;;;;;;;;5032478;28;20060;-63
2022/04/14 10:15:33;;;;;;;17.63;6.60;;;;;;;;;;5032094;28;20049;-61
2022/04/14 10:18:04;;;;;;;15.13;7.47;;;;;;;;;;5032308;28;20052;-58
2022/04/14 10:20:31;;;;;;;16.08;6.93;;;;;;;;;;5032333;28;20053;-63
2022/04/14 10:22:59;;;;;;;16.10;6.65;;;;;;;;;;5032910;28;20054;-60
2022/04/14 10:25:26;;;;;;;14.98;5.78;;;;;;;;;;5033006;28;20069;-61
2022/04/14 10:27:53;;;;;;;13.43;5.63;;;;;;;;;;5031825;28;20056;-58
2022/04/14 10:30:21;;;;;;;15.30;6.63;;;;;;;;;;5031567;28;20049;-64
2022/04/14 10:32:47;;;;;;;16.50;6.47;;;;;;;;;;5032555;28;20060;-60
2022/04/14 10:35:18;;;;;;;14.95;5.93;;;;;;;;;;5032172;28;20137;-59
2022/04/14 10:37:46;;;;;;;24.52;11.45;;;;;;;;;;5031496;28;20048;-59
2022/04/14 10:40:14;;;;;;;15.40;7.00;;;;;;;;;;5031691;28;20076;-59
2022/04/14 10:42:46;;;;;;;12.13;5.13;;;;;;;;;;5031675;28;20099;-59
2022/04/14 10:45:17;;;;;;;11.60;5.13;;;;;;;;;;5031410;28;20106;-62
2022/04/14 10:47:54;;;;;;;9.65;4.88;;;;;;;;;;5031216;28;20063;-62
2022/04/14 10:50:23;;;;;;;10.20;4.10;;;;;;;;;;5031951;28;20053;-63
2022/04/14 10:53:11;;;;;;;12.30;4.80;;;;;;;;;;5031411;28;20079;-64
2022/04/14 10:55:41;;;;;;;11.90;4.47;;;;;;;;;;5030504;28;20057;-60
2022/04/14 10:58:09;;;;;;;11.95;3.60;;;;;;;;;;5031242;28;20040;-61
2022/04/14 11:00:36;;;;;;;11.05;3.10;;;;;;;;;;5031230;28;20062;-60
2022/04/14 11:03:19;;;;;;;9.45;4.00;;;;;;;;;;5002237;23;20065;-63
2022/04/14 11:05:50;;;;;;;11.15;3.05;;;;;;;;;;4976395;28;20054;-60
2022/04/14 11:08:24;;;;;;;7.47;2.42;;;;;;;;;;4983656;28;20056;-60
2022/04/14 11:10:54;;;;;;;10.18;3.45;;;;;;;;;;4988070;28;20046;-58
2022/04/14 11:13:21;;;;;;;10.88;3.40;;;;;;;;;;4971309;28;20053;-63
2022/04/14 11:15:47;;;;;;;9.57;2.75;;;;;;;;;;4988625;28;20057;-61
2022/04/14 11:18:16;;;;;;;9.25;2.92;;;;;;;;;;4975101;28;20053;-60
2022/04/14 11:21:04;;;;;;;6.97;2.83;;;;;;;;;;5004883;28;20061;-62
2022/04/14 11:23:35;;;;;;;12.57;3.15;;;;;;;;;;4994171;28;20054;-60
2022/04/14 11:26:09;;;;;;;9.20;3.42;;;;;;;;;;5004177;28;20058;-61
2022/04/14 11:28:37;;;;;;;7.35;2.83;;;;;;;;;;4986384;28;20062;-59
2022/04/14 11:31:04;;;;;;;7.57;3.08;;;;;;;;;;4998716;28;20054;-60
2022/04/14 11:33:35;;;;;;;9.63;3.00;;;;;;;;;;4989360;28;20053;-59
2022/04/14 11:36:08;;;;;;;10.30;2.88;;;;;;;;;;4975713;28;20061;-59
2022/04/14 11:39:06;;;;;;;8.02;3.00;;;;;;;;;;4987935;28;20161;-62
2022/04/14 11:41:38;;;;;;;6.93;2.50;;;;;;;;;;4987404;28;20152;-59
2022/04/14 11:44:05;;;;;;;7.72;2.15;;;;;;;;;;5007001;28;20100;-64
2022/04/14 11:46:33;;;;;;;6.15;2.03;;;;;;;;;;4977144;28;20095;-59
2022/04/14 11:49:00;;;;;;;4.82;1.98;;;;;;;;;;5003754;28;20056;-60
2022/04/14 11:51:28;;;;;;;4.68;2.03;;;;;;;;;;5002523;28;20058;-64
2022/04/14 11:53:56;;;;;;;7.65;2.33;;;;;;;;;;4972157;28;20141;-66
2022/04/14 11:56:24;;;;;;;8.73;2.40;;;;;;;;;;5006372;28;20054;-60
2022/04/14 11:58:53;;;;;;;6.78;2.53;;;;;;;;;;4974226;28;20144;-59
2022/04/14 12:01:19;;;;;;;;;;;;;;;;;;4988270;28;20060;-61
2022/04/14 12:03:46;;;;;;;13.77;4.78;;;;;;;;;;5014813;28;19944;-59
2022/04/14 12:06:16;;;;;;;9.85;3.70;;;;;;;;;;5026118;28;20061;-60
2022/04/14 12:08:43;;;;;;;13.85;3.80;;;;;;;;;;5039786;28;20125;-61
2022/04/14 12:11:13;;;;;;;9.70;3.40;;;;;;;;;;4999394;28;20262;-59
2022/04/14 12:13:40;;;;;;;8.63;3.33;;;;;;;;;;5028167;28;20130;-61
2022/04/14 12:16:09;;;;;;;8.40;3.38;;;;;;;;;;5033333;28;20052;-59
2022/04/14 12:18:36;;;;;;;10.43;4.03;;;;;;;;;;5028640;28;20061;-60
2022/04/14 12:21:04;;;;;;;7.97;2.53;;;;;;;;;;5025091;28;20079;-61
2022/04/14 12:23:31;;;;;;;10.27;4.88;;;;;;;;;;5027809;28;20053;-60
2022/04/14 12:25:58;;;;;;;6.88;3.42;;;;;;;;;;5023565;28;20057;-61
2022/04/14 12:28:24;;;;;;;8.45;3.25;;;;;;;;;;5047556;28;20053;-61
2022/04/14 12:30:51;;;;;;;5.25;2.83;;;;;;;;;;5031417;28;20045;-59
2022/04/14 12:33:25;;;;;;;5.10;2.40;;;;;;;;;;5025518;28;20056;-64
2022/04/14 12:35:51;;;;;;;6.38;2.78;;;;;;;;;;5033103;28;20136;-62
2022/04/14 12:38:19;;;;;;;7.05;2.53;;;;;;;;;;5026964;28;20048;-60
2022/04/14 12:40:56;;;;;;;4.70;1.83;;;;;;;;;;5033186;28;20048;-59
2022/04/14 12:43:23;;;;;;;5.10;2.28;;;;;;;;;;5026005;28;20135;-63
2022/04/14 12:45:54;;;;;;;7.07;2.03;;;;;;;;;;5033147;28;20051;-62
2022/04/14 12:48:28;;;;;;;6.07;2.42;;;;;;;;;;5026260;28;20060;-65
2022/04/14 12:50:56;;;;;;;6.55;2.08;;;;;;;;;;5049174;28;20055;-60
2022/04/14 12:53:24;;;;;;;6.68;2.08;;;;;;;;;;5026612;28;20141;-63
2022/04/14 12:55:51;;;;;;;8.80;2.42;;;;;;;;;;5046374;28;20124;-62
2022/04/14 12:58:18;;;;;;;3.63;1.77;;;;;;;;;;5043021;28;20057;-65
2022/04/14 13:00:45;;;;;;;4.68;2.00;;;;;;;;;;5049267;28;20053;-59
2022/04/14 13:03:15;;;;;;;6.32;2.30;;;;;;;;;;5026498;28;20060;-59
2022/04/14 13:05:44;;;;;;;5.82;2.17;;;;;;;;;;5031593;28;20048;-62
2022/04/14 13:08:11;;;;;;;5.35;2.03;;;;;;;;;;5025710;28;20141;-60
2022/04/14 13:10:39;;;;;;;6.43;2.03;;;;;;;;;;5049152;28;20072;-61
2022/04/14 13:13:06;;;;;;;5.30;1.73;;;;;;;;;;5042338;28;20099;-66
2022/04/14 13:15:34;;;;;;;4.65;1.98;;;;;;;;;;5048105;28;20064;-62
2022/04/14 13:18:01;;;;;;;10.27;2.40;;;;;;;;;;5025162;28;20111;-59
2022/04/14 13:20:34;;;;;;;5.80;2.33;;;;;;;;;;5031551;28;20053;-59
2022/04/14 13:23:03;;;;;;;6.20;2.05;;;;;;;;;;5041251;28;20118;-61
2022/04/14 13:25:36;;;;;;;6.50;2.45;;;;;;;;;;5031296;28;20049;-60
2022/04/14 13:28:03;;;;;;;5.80;2.30;;;;;;;;;;5031414;28;20056;-60
2022/04/14 13:30:29;;;;;;;7.47;2.13;;;;;;;;;;5025917;28;20057;-59
2022/04/14 13:32:57;;;;;;;4.22;1.83;;;;;;;;;;5030619;28;20083;-63
2022/04/14 13:35:23;;;;;;;5.28;2.15;;;;;;;;;;5025755;28;20064;-63
2022/04/14 13:37:51;;;;;;;5.05;2.30;;;;;;;;;;5031961;28;20061;-62
2022/04/14 13:40:22;;;;;;;5.63;2.55;;;;;;;;;;5025443;28;20048;-61
2022/04/14 13:42:49;;;;;;;5.85;2.22;;;;;;;;;;5031572;28;20080;-59
2022/04/14 13:45:17;;;;;;;13.77;3.83;;;;;;;;;;5026278;28;20151;-61
2022/04/14 13:47:44;;;;;;;5.28;2.65;;;;;;;;;;5030382;28;20053;-61
2022/04/14 13:50:11;;;;;;;8.60;2.55;;;;;;;;;;5042153;28;20134;-61
2022/04/14 13:52:38;;;;;;;8.88;4.13;;;;;;;;;;5031412;28;20132;-61
2022/04/14 13:55:05;;;;;;;10.15;4.40;;;;;;;;;;5025729;28;20107;-61
2022/04/14 13:57:34;;;;;;;9.55;3.75;;;;;;;;;;5030849;28;20056;-59
2022/04/14 14:00:01;;;;;;;9.48;4.45;;;;;;;;;;5023983;28;20122;-61
2022/04/14 14:02:28;;;;;;;5.07;2.22;;;;;;;;;;5028148;28;20084;-63
2022/04/14 14:04:55;;;;;;;13.18;5.65;;;;;;;;;;5021352;28;20065;-60
2022/04/14 14:07:22;;;;;;;13.45;6.20;;;;;;;;;;5027881;28;20057;-62
2022/04/14 14:09:48;;;;;;;7.90;4.47;;;;;;;;;;4999311;28;20069;-62
2022/04/14 14:12:15;;;;;;;8.38;3.95;;;;;;;;;;5043104;28;20111;-59
2022/04/14 14:14:43;;;;;;;10.43;5.53;;;;;;;;;;5027922;28;20165;-60
2022/04/14 14:17:10;;;;;;;6.40;3.00;;;;;;;;;;5018395;28;20123;-61
2022/04/14 14:19:37;;;;;;;12.25;5.65;;;;;;;;;;5011123;28;20057;-63
2022/04/14 14:22:03;;;;;;;15.75;7.60;;;;;;;;;;5020115;28;20057;-64
2022/04/14 14:24:30;;;;;;;12.73;5.32;;;;;;;;;;5010625;28;20103;-64
2022/04/14 14:26:57;;;;;;;5.93;2.92;;;;;;;;;;5020943;28;20101;-64
2022/04/14 14:29:23;;;;;;;7.18;3.72;;;;;;;;;;5026438;28;20057;-66
2022/04/14 14:31:51;;;;;;;7.63;3.78;;;;;;;;;;5004062;28;20045;-61
2022/04/14 14:34:18;;;;;;;6.97;2.72;;;;;;;;;;5027884;28;20080;-59
2022/04/14 14:36:47;;;;;;;12.48;5.57;;;;;;;;;;5022601;28;20049;-64